sensor_id;sensor_type;location;lat;lon;timestamp;P1;durP1;ratioP1;P2;durP2;ratioP2
36445;SDS011;22472;50.848;-1.216;2024-02-04T00:02:05;28.83;;;4.50;;
36445;SDS011;22472;50.848;-1.216;2024-02-04T00:04:36;29.98;;;4.68;;
36445;SDS011;22472;50.848;-1.216;2024-02-04T00:07:03;30.27;;;4.45;;
36445;SDS011;22472;50.848;-1.216;2024-02-04T00:09:30;30.90;;;4.85;;
36445;SDS011;22472;50.848;-1.216;2024-02-04T00:11:58;34.85;;;4.85;;
36445;SDS011;22472;50.848;-1.216;2024-02-04T00:14:28;36.97;;;4.82;;
36445;SDS011;22472;50.848;-1.216;2024-02-04T00:16:56;33.88;;;5.05;;
36445;SDS011;22472;50.848;-1.216;2024-02-04T00:19:24;33.88;;;4.63;;
36445;SDS011;22472;50.848;-1.216;2024-02-04T00:21:53;31.50;;;4.78;;
36445;SDS011;22472;50.848;-1.216;2024-02-04T00:24:20;33.10;;;4.40;;
36445;SDS011;22472;50.848;-1.216;2024-02-04T00:26:47;38.17;;;4.32;;
36445;SDS011;22472;50.848;-1.216;2024-02-04T00:29:14;30.35;;;4.10;;
36445;SDS011;22472;50.848;-1.216;2024-02-04T00:31:42;32.40;;;4.30;;
36445;SDS011;22472;50.848;-1.216;2024-02-04T00:34:09;37.70;;;4.60;;
36445;SDS011;22472;50.848;-1.216;2024-02-04T00:36:36;40.85;;;5.20;;
36445;SDS011;22472;50.848;-1.216;2024-02-04T00:39:05;34.78;;;4.20;;
36445;SDS011;22472;50.848;-1.216;2024-02-04T00:41:32;28.80;;;4.07;;
36445;SDS011;22472;50.848;-1.216;2024-02-04T00:44:00;40.15;;;4.38;;
36445;SDS011;22472;50.848;-1.216;2024-02-04T00:46:27;34.70;;;4.55;;
36445;SDS011;22472;50.848;-1.216;2024-02-04T00:48:54;36.60;;;4.55;;
36445;SDS011;22472;50.848;-1.216;2024-02-04T00:51:22;40.95;;;4.85;;
36445;SDS011;22472;50.848;-1.216;2024-02-04T00:53:49;37.40;;;4.68;;
36445;SDS011;22472;50.848;-1.216;2024-02-04T00:56:17;27.77;;;3.72;;
36445;SDS011;22472;50.848;-1.216;2024-02-04T00:58:45;31.48;;;4.03;;
36445;SDS011;22472;50.848;-1.216;2024-02-04T01:01:12;37.65;;;4.65;;
36445;SDS011;22472;50.848;-1.216;2024-02-04T01:03:39;22.35;;;3.65;;
36445;SDS011;22472;50.848;-1.216;2024-02-04T01:06:06;33.53;;;3.90;;
36445;SDS011;22472;50.848;-1.216;2024-02-04T01:08:34;31.00;;;3.83;;
36445;SDS011;22472;50.848;-1.216;2024-02-04T01:11:03;24.17;;;3.55;;
36445;SDS011;22472;50.848;-1.216;2024-02-04T01:13:31;38.10;;;4.28;;
36445;SDS011;22472;50.848;-1.216;2024-02-04T01:15:59;30.38;;;4.10;;
36445;SDS011;22472;50.848;-1.216;2024-02-04T01:18:26;30.80;;;3.58;;
36445;SDS011;22472;50.848;-1.216;2024-02-04T01:20:53;27.35;;;3.50;;
36445;SDS011;22472;50.848;-1.216;2024-02-04T01:23:20;31.15;;;3.70;;
36445;SDS011;22472;50.848;-1.216;2024-02-04T01:25:47;30.30;;;3.83;;
36445;SDS011;22472;50.848;-1.216;2024-02-04T01:28:15;33.33;;;3.95;;
36445;SDS011;22472;50.848;-1.216;2024-02-04T01:30:43;32.17;;;4.38;;
36445;SDS011;22472;50.848;-1.216;2024-02-04T01:33:11;33.42;;;3.25;;
36445;SDS011;22472;50.848;-1.216;2024-02-04T01:35:38;34.33;;;4.10;;
36445;SDS011;22472;50.848;-1.216;2024-02-04T01:38:05;33.55;;;3.95;;
36445;SDS011;22472;50.848;-1.216;2024-02-04T01:40:32;26.52;;;4.15;;
36445;SDS011;22472;50.848;-1.216;2024-02-04T01:43:00;37.35;;;4.35;;
36445;SDS011;22472;50.848;-1.216;2024-02-04T01:45:27;33.28;;;4.28;;
36445;SDS011;22472;50.848;-1.216;2024-02-04T01:47:55;34.10;;;4.00;;
36445;SDS011;22472;50.848;-1.216;2024-02-04T01:50:23;31.58;;;4.20;;
36445;SDS011;22472;50.848;-1.216;2024-02-04T01:52:51;30.13;;;3.58;;
36445;SDS011;22472;50.848;-1.216;2024-02-04T01:55:18;28.55;;;4.43;;
36445;SDS011;22472;50.848;-1.216;2024-02-04T01:57:46;28.25;;;3.80;;
36445;SDS011;22472;50.848;-1.216;2024-02-04T02:00:15;33.05;;;3.70;;
36445;SDS011;22472;50.848;-1.216;2024-02-04T02:02:43;29.25;;;3.45;;
36445;SDS011;22472;50.848;-1.216;2024-02-04T02:05:14;26.45;;;3.00;;
36445;SDS011;22472;50.848;-1.216;2024-02-04T02:07:41;22.05;;;3.53;;
36445;SDS011;22472;50.848;-1.216;2024-02-04T02:10:11;27.40;;;3.60;;
36445;SDS011;22472;50.848;-1.216;2024-02-04T02:12:39;26.95;;;3.85;;
36445;SDS011;22472;50.848;-1.216;2024-02-04T02:15:09;32.80;;;3.45;;
36445;SDS011;22472;50.848;-1.216;2024-02-04T02:17:38;24.25;;;3.15;;
36445;SDS011;22472;50.848;-1.216;2024-02-04T02:20:16;30.83;;;3.20;;
36445;SDS011;22472;50.848;-1.216;2024-02-04T02:22:47;27.38;;;3.22;;
36445;SDS011;22472;50.848;-1.216;2024-02-04T02:25:17;31.45;;;3.13;;
36445;SDS011;22472;50.848;-1.216;2024-02-04T02:30:14;22.48;;;3.03;;
36445;SDS011;22472;50.848;-1.216;2024-02-04T02:32:42;29.88;;;3.55;;
36445;SDS011;22472;50.848;-1.216;2024-02-04T02:35:10;23.98;;;3.05;;
36445;SDS011;22472;50.848;-1.216;2024-02-04T02:37:40;24.70;;;3.22;;
36445;SDS011;22472;50.848;-1.216;2024-02-04T02:40:09;29.55;;;3.40;;
36445;SDS011;22472;50.848;-1.216;2024-02-04T02:42:40;25.25;;;3.35;;
36445;SDS011;22472;50.848;-1.216;2024-02-04T02:45:09;30.73;;;3.47;;
36445;SDS011;22472;50.848;-1.216;2024-02-04T02:47:38;24.85;;;3.15;;
36445;SDS011;22472;50.848;-1.216;2024-02-04T02:50:06;25.65;;;3.17;;
36445;SDS011;22472;50.848;-1.216;2024-02-04T02:52:33;23.50;;;2.97;;
36445;SDS011;22472;50.848;-1.216;2024-02-04T02:55:01;35.15;;;3.45;;
36445;SDS011;22472;50.848;-1.216;2024-02-04T02:57:28;29.98;;;3.50;;
36445;SDS011;22472;50.848;-1.216;2024-02-04T02:59:57;22.50;;;3.22;;
36445;SDS011;22472;50.848;-1.216;2024-02-04T03:05:00;25.90;;;3.10;;
36445;SDS011;22472;50.848;-1.216;2024-02-04T03:07:27;30.55;;;3.63;;
36445;SDS011;22472;50.848;-1.216;2024-02-04T03:09:54;21.77;;;3.10;;
36445;SDS011;22472;50.848;-1.216;2024-02-04T03:12:22;27.20;;;3.70;;
36445;SDS011;22472;50.848;-1.216;2024-02-04T03:14:50;30.92;;;3.45;;
36445;SDS011;22472;50.848;-1.216;2024-02-04T03:17:18;25.48;;;3.17;;
36445;SDS011;22472;50.848;-1.216;2024-02-04T03:19:46;29.65;;;3.65;;
36445;SDS011;22472;50.848;-1.216;2024-02-04T03:22:14;28.70;;;3.75;;
36445;SDS011;22472;50.848;-1.216;2024-02-04T03:24:41;35.70;;;4.15;;
36445;SDS011;22472;50.848;-1.216;2024-02-04T03:27:08;34.15;;;4.30;;
36445;SDS011;22472;50.848;-1.216;2024-02-04T03:29:36;35.72;;;4.00;;
36445;SDS011;22472;50.848;-1.216;2024-02-04T03:32:03;31.92;;;3.75;;
36445;SDS011;22472;50.848;-1.216;2024-02-04T03:34:50;30.65;;;3.67;;
36445;SDS011;22472;50.848;-1.216;2024-02-04T03:37:18;32.53;;;3.90;;
36445;SDS011;22472;50.848;-1.216;2024-02-04T03:39:45;29.13;;;3.42;;
36445;SDS011;22472;50.848;-1.216;2024-02-04T03:42:12;32.00;;;3.95;;
36445;SDS011;22472;50.848;-1.216;2024-02-04T03:44:39;29.80;;;3.72;;
36445;SDS011;22472;50.848;-1.216;2024-02-04T03:47:07;29.80;;;3.58;;
36445;SDS011;22472;50.848;-1.216;2024-02-04T03:49:34;26.40;;;3.72;;
36445;SDS011;22472;50.848;-1.216;2024-02-04T03:52:03;20.73;;;2.90;;
36445;SDS011;22472;50.848;-1.216;2024-02-04T03:54:30;28.23;;;3.63;;
36445;SDS011;22472;50.848;-1.216;2024-02-04T03:56:57;26.98;;;3.58;;
36445;SDS011;22472;50.848;-1.216;2024-02-04T03:59:25;24.92;;;3.92;;
36445;SDS011;22472;50.848;-1.216;2024-02-04T04:01:52;30.73;;;3.90;;
36445;SDS011;22472;50.848;-1.216;2024-02-04T04:04:20;35.83;;;3.80;;
36445;SDS011;22472;50.848;-1.216;2024-02-04T04:06:47;27.33;;;3.80;;
36445;SDS011;22472;50.848;-1.216;2024-02-04T04:09:16;28.83;;;3.72;;
36445;SDS011;22472;50.848;-1.216;2024-02-04T04:11:43;24.35;;;3.33;;
36445;SDS011;22472;50.848;-1.216;2024-02-04T04:14:10;34.00;;;3.88;;
36445;SDS011;22472;50.848;-1.216;2024-02-04T04:16:37;32.67;;;4.15;;
36445;SDS011;22472;50.848;-1.216;2024-02-04T04:19:05;35.92;;;4.22;;
36445;SDS011;22472;50.848;-1.216;2024-02-04T04:21:32;28.10;;;4.10;;
36445;SDS011;22472;50.848;-1.216;2024-02-04T04:24:01;28.58;;;4.40;;
36445;SDS011;22472;50.848;-1.216;2024-02-04T04:26:29;35.03;;;3.72;;
36445;SDS011;22472;50.848;-1.216;2024-02-04T04:28:57;25.30;;;3.80;;
36445;SDS011;22472;50.848;-1.216;2024-02-04T04:31:24;35.35;;;4.30;;
36445;SDS011;22472;50.848;-1.216;2024-02-04T04:33:51;35.17;;;4.82;;
36445;SDS011;22472;50.848;-1.216;2024-02-04T04:36:19;34.45;;;5.03;;
36445;SDS011;22472;50.848;-1.216;2024-02-04T04:38:46;30.98;;;4.30;;
36445;SDS011;22472;50.848;-1.216;2024-02-04T04:41:15;28.73;;;4.57;;
36445;SDS011;22472;50.848;-1.216;2024-02-04T04:43:44;26.80;;;4.47;;
36445;SDS011;22472;50.848;-1.216;2024-02-04T04:46:11;27.95;;;4.78;;
36445;SDS011;22472;50.848;-1.216;2024-02-04T04:48:39;26.70;;;4.60;;
36445;SDS011;22472;50.848;-1.216;2024-02-04T04:51:07;24.05;;;4.68;;
36445;SDS011;22472;50.848;-1.216;2024-02-04T04:53:34;35.50;;;5.43;;
36445;SDS011;22472;50.848;-1.216;2024-02-04T04:56:02;30.45;;;4.57;;
36445;SDS011;22472;50.848;-1.216;2024-02-04T04:58:29;31.25;;;4.75;;
36445;SDS011;22472;50.848;-1.216;2024-02-04T05:00:57;36.13;;;5.40;;
36445;SDS011;22472;50.848;-1.216;2024-02-04T05:03:25;30.30;;;4.45;;
36445;SDS011;22472;50.848;-1.216;2024-02-04T05:05:52;29.42;;;4.85;;
36445;SDS011;22472;50.848;-1.216;2024-02-04T05:08:19;36.13;;;5.32;;
36445;SDS011;22472;50.848;-1.216;2024-02-04T05:10:47;37.53;;;5.28;;
36445;SDS011;22472;50.848;-1.216;2024-02-04T05:13:14;37.10;;;5.28;;
36445;SDS011;22472;50.848;-1.216;2024-02-04T05:15:41;37.28;;;5.10;;
36445;SDS011;22472;50.848;-1.216;2024-02-04T05:18:09;42.47;;;5.82;;
36445;SDS011;22472;50.848;-1.216;2024-02-04T05:20:37;34.38;;;4.90;;
36445;SDS011;22472;50.848;-1.216;2024-02-04T05:23:04;37.78;;;5.38;;
36445;SDS011;22472;50.848;-1.216;2024-02-04T05:25:31;34.78;;;5.25;;
36445;SDS011;22472;50.848;-1.216;2024-02-04T05:27:58;38.42;;;4.97;;
36445;SDS011;22472;50.848;-1.216;2024-02-04T05:30:25;41.30;;;5.93;;
36445;SDS011;22472;50.848;-1.216;2024-02-04T05:32:52;40.03;;;6.13;;
36445;SDS011;22472;50.848;-1.216;2024-02-04T05:35:21;29.67;;;4.90;;
36445;SDS011;22472;50.848;-1.216;2024-02-04T05:37:48;33.03;;;5.80;;
36445;SDS011;22472;50.848;-1.216;2024-02-04T05:40:15;32.30;;;5.43;;
36445;SDS011;22472;50.848;-1.216;2024-02-04T05:42:45;40.47;;;6.47;;
36445;SDS011;22472;50.848;-1.216;2024-02-04T05:45:12;37.53;;;6.22;;
36445;SDS011;22472;50.848;-1.216;2024-02-04T05:47:40;42.38;;;6.05;;
36445;SDS011;22472;50.848;-1.216;2024-02-04T05:50:07;37.05;;;5.95;;
36445;SDS011;22472;50.848;-1.216;2024-02-04T05:52:36;38.75;;;5.95;;
36445;SDS011;22472;50.848;-1.216;2024-02-04T05:55:04;39.88;;;6.07;;
36445;SDS011;22472;50.848;-1.216;2024-02-04T05:57:31;31.38;;;5.72;;
36445;SDS011;22472;50.848;-1.216;2024-02-04T05:59:58;34.88;;;5.90;;
36445;SDS011;22472;50.848;-1.216;2024-02-04T06:02:25;42.08;;;5.80;;
36445;SDS011;22472;50.848;-1.216;2024-02-04T06:04:52;39.67;;;5.53;;
36445;SDS011;22472;50.848;-1.216;2024-02-04T06:07:20;39.55;;;5.65;;
36445;SDS011;22472;50.848;-1.216;2024-02-04T06:09:48;37.17;;;5.45;;
36445;SDS011;22472;50.848;-1.216;2024-02-04T06:12:15;47.40;;;5.95;;
36445;SDS011;22472;50.848;-1.216;2024-02-04T06:14:42;42.70;;;6.10;;
36445;SDS011;22472;50.848;-1.216;2024-02-04T06:17:10;36.20;;;5.78;;
36445;SDS011;22472;50.848;-1.216;2024-02-04T06:19:37;41.88;;;5.78;;
36445;SDS011;22472;50.848;-1.216;2024-02-04T06:22:04;43.53;;;5.85;;
36445;SDS011;22472;50.848;-1.216;2024-02-04T06:24:31;42.08;;;6.13;;
36445;SDS011;22472;50.848;-1.216;2024-02-04T06:27:00;41.13;;;5.88;;
36445;SDS011;22472;50.848;-1.216;2024-02-04T06:29:27;48.28;;;6.45;;
36445;SDS011;22472;50.848;-1.216;2024-02-04T06:31:54;39.15;;;5.82;;
36445;SDS011;22472;50.848;-1.216;2024-02-04T06:34:21;37.92;;;5.93;;
36445;SDS011;22472;50.848;-1.216;2024-02-04T06:36:49;39.70;;;6.07;;
36445;SDS011;22472;50.848;-1.216;2024-02-04T06:39:16;53.67;;;6.47;;
36445;SDS011;22472;50.848;-1.216;2024-02-04T06:41:44;41.65;;;6.30;;
36445;SDS011;22472;50.848;-1.216;2024-02-04T06:44:12;45.85;;;6.07;;
36445;SDS011;22472;50.848;-1.216;2024-02-04T06:46:39;47.75;;;6.50;;
36445;SDS011;22472;50.848;-1.216;2024-02-04T06:49:07;35.47;;;6.18;;
36445;SDS011;22472;50.848;-1.216;2024-02-04T06:51:34;38.47;;;5.88;;
36445;SDS011;22472;50.848;-1.216;2024-02-04T06:54:01;38.65;;;5.63;;
36445;SDS011;22472;50.848;-1.216;2024-02-04T06:56:28;36.58;;;5.05;;
36445;SDS011;22472;50.848;-1.216;2024-02-04T06:58:55;28.83;;;5.35;;
36445;SDS011;22472;50.848;-1.216;2024-02-04T07:01:24;34.65;;;5.43;;
36445;SDS011;22472;50.848;-1.216;2024-02-04T07:03:51;34.35;;;5.47;;
36445;SDS011;22472;50.848;-1.216;2024-02-04T07:06:18;35.33;;;5.32;;
36445;SDS011;22472;50.848;-1.216;2024-02-04T07:08:45;34.85;;;5.28;;
36445;SDS011;22472;50.848;-1.216;2024-02-04T07:11:13;35.05;;;5.68;;
36445;SDS011;22472;50.848;-1.216;2024-02-04T07:13:40;36.95;;;5.45;;
36445;SDS011;22472;50.848;-1.216;2024-02-04T07:16:08;33.55;;;5.50;;
36445;SDS011;22472;50.848;-1.216;2024-02-04T07:18:36;38.13;;;5.43;;
36445;SDS011;22472;50.848;-1.216;2024-02-04T07:21:04;38.88;;;4.95;;
36445;SDS011;22472;50.848;-1.216;2024-02-04T07:23:31;28.30;;;4.75;;
36445;SDS011;22472;50.848;-1.216;2024-02-04T07:25:58;29.75;;;5.75;;
36445;SDS011;22472;50.848;-1.216;2024-02-04T07:28:25;45.53;;;6.15;;
36445;SDS011;22472;50.848;-1.216;2024-02-04T07:30:52;38.33;;;6.30;;
36445;SDS011;22472;50.848;-1.216;2024-02-04T07:33:20;44.75;;;5.93;;
36445;SDS011;22472;50.848;-1.216;2024-02-04T07:35:48;31.52;;;6.25;;
36445;SDS011;22472;50.848;-1.216;2024-02-04T07:38:16;43.58;;;6.68;;
36445;SDS011;22472;50.848;-1.216;2024-02-04T07:40:43;39.03;;;6.35;;
36445;SDS011;22472;50.848;-1.216;2024-02-04T07:43:10;40.38;;;6.88;;
36445;SDS011;22472;50.848;-1.216;2024-02-04T07:45:37;38.10;;;6.13;;
36445;SDS011;22472;50.848;-1.216;2024-02-04T07:48:05;43.75;;;6.75;;
36445;SDS011;22472;50.848;-1.216;2024-02-04T07:50:34;43.53;;;7.05;;
36445;SDS011;22472;50.848;-1.216;2024-02-04T07:53:03;44.28;;;7.38;;
36445;SDS011;22472;50.848;-1.216;2024-02-04T07:55:30;42.22;;;7.15;;
36445;SDS011;22472;50.848;-1.216;2024-02-04T07:57:58;48.28;;;7.10;;
36445;SDS011;22472;50.848;-1.216;2024-02-04T08:00:25;43.05;;;6.80;;
36445;SDS011;22472;50.848;-1.216;2024-02-04T08:02:52;43.72;;;7.13;;
36445;SDS011;22472;50.848;-1.216;2024-02-04T08:05:19;47.50;;;8.30;;
36445;SDS011;22472;50.848;-1.216;2024-02-04T08:07:46;45.10;;;7.35;;
36445;SDS011;22472;50.848;-1.216;2024-02-04T08:10:15;46.05;;;6.72;;
36445;SDS011;22472;50.848;-1.216;2024-02-04T08:12:42;43.65;;;6.63;;
36445;SDS011;22472;50.848;-1.216;2024-02-04T08:15:15;45.92;;;7.18;;
36445;SDS011;22472;50.848;-1.216;2024-02-04T08:17:42;41.55;;;7.28;;
36445;SDS011;22472;50.848;-1.216;2024-02-04T08:20:10;44.30;;;7.13;;
36445;SDS011;22472;50.848;-1.216;2024-02-04T08:22:37;44.47;;;7.00;;
36445;SDS011;22472;50.848;-1.216;2024-02-04T08:25:04;42.15;;;6.45;;
36445;SDS011;22472;50.848;-1.216;2024-02-04T08:27:33;47.42;;;6.88;;
36445;SDS011;22472;50.848;-1.216;2024-02-04T08:30:00;44.65;;;7.00;;
36445;SDS011;22472;50.848;-1.216;2024-02-04T08:32:28;51.22;;;6.18;;
36445;SDS011;22472;50.848;-1.216;2024-02-04T08:34:55;45.17;;;6.43;;
36445;SDS011;22472;50.848;-1.216;2024-02-04T08:37:23;45.13;;;6.57;;
36445;SDS011;22472;50.848;-1.216;2024-02-04T08:39:50;47.25;;;6.88;;
36445;SDS011;22472;50.848;-1.216;2024-02-04T08:42:17;45.17;;;6.75;;
36445;SDS011;22472;50.848;-1.216;2024-02-04T08:44:46;46.33;;;7.28;;
36445;SDS011;22472;50.848;-1.216;2024-02-04T08:47:13;36.60;;;6.43;;
36445;SDS011;22472;50.848;-1.216;2024-02-04T08:49:42;43.60;;;6.60;;
36445;SDS011;22472;50.848;-1.216;2024-02-04T08:52:09;35.80;;;6.30;;
36445;SDS011;22472;50.848;-1.216;2024-02-04T08:54:36;41.90;;;6.75;;
36445;SDS011;22472;50.848;-1.216;2024-02-04T08:57:03;35.30;;;7.07;;
36445;SDS011;22472;50.848;-1.216;2024-02-04T08:59:31;38.78;;;6.03;;
36445;SDS011;22472;50.848;-1.216;2024-02-04T09:01:59;35.08;;;6.18;;
36445;SDS011;22472;50.848;-1.216;2024-02-04T09:04:27;34.58;;;6.03;;
36445;SDS011;22472;50.848;-1.216;2024-02-04T09:06:54;34.72;;;5.97;;
36445;SDS011;22472;50.848;-1.216;2024-02-04T09:09:21;34.83;;;6.30;;
36445;SDS011;22472;50.848;-1.216;2024-02-04T09:11:48;44.55;;;6.65;;
36445;SDS011;22472;50.848;-1.216;2024-02-04T09:14:16;39.28;;;6.32;;
36445;SDS011;22472;50.848;-1.216;2024-02-04T09:16:43;39.67;;;6.63;;
36445;SDS011;22472;50.848;-1.216;2024-02-04T09:19:11;40.00;;;5.95;;
36445;SDS011;22472;50.848;-1.216;2024-02-04T09:21:39;35.22;;;6.03;;
36445;SDS011;22472;50.848;-1.216;2024-02-04T09:24:07;39.63;;;6.20;;
36445;SDS011;22472;50.848;-1.216;2024-02-04T09:26:34;37.17;;;6.00;;
36445;SDS011;22472;50.848;-1.216;2024-02-04T09:29:01;34.05;;;6.07;;
36445;SDS011;22472;50.848;-1.216;2024-02-04T09:31:28;42.70;;;6.18;;
36445;SDS011;22472;50.848;-1.216;2024-02-04T09:33:56;41.55;;;5.95;;
36445;SDS011;22472;50.848;-1.216;2024-02-04T09:36:25;38.92;;;6.32;;
36445;SDS011;22472;50.848;-1.216;2024-02-04T09:38:52;38.30;;;5.85;;
36445;SDS011;22472;50.848;-1.216;2024-02-04T09:41:20;35.58;;;6.13;;
36445;SDS011;22472;50.848;-1.216;2024-02-04T09:43:50;33.33;;;6.03;;
36445;SDS011;22472;50.848;-1.216;2024-02-04T09:46:17;39.65;;;6.85;;
36445;SDS011;22472;50.848;-1.216;2024-02-04T09:48:45;30.15;;;6.43;;
36445;SDS011;22472;50.848;-1.216;2024-02-04T09:51:12;38.58;;;6.97;;
36445;SDS011;22472;50.848;-1.216;2024-02-04T09:53:43;42.60;;;6.50;;
36445;SDS011;22472;50.848;-1.216;2024-02-04T09:56:10;40.20;;;6.22;;
36445;SDS011;22472;50.848;-1.216;2024-02-04T09:58:38;39.15;;;6.47;;
36445;SDS011;22472;50.848;-1.216;2024-02-04T10:01:05;41.65;;;6.20;;
36445;SDS011;22472;50.848;-1.216;2024-02-04T10:03:34;37.60;;;6.38;;
36445;SDS011;22472;50.848;-1.216;2024-02-04T10:06:01;44.50;;;6.68;;
36445;SDS011;22472;50.848;-1.216;2024-02-04T10:08:28;37.78;;;6.65;;
36445;SDS011;22472;50.848;-1.216;2024-02-04T10:10:57;39.30;;;6.00;;
36445;SDS011;22472;50.848;-1.216;2024-02-04T10:13:24;40.28;;;5.93;;
36445;SDS011;22472;50.848;-1.216;2024-02-04T10:15:52;38.42;;;6.63;;
36445;SDS011;22472;50.848;-1.216;2024-02-04T10:18:19;37.38;;;6.43;;
36445;SDS011;22472;50.848;-1.216;2024-02-04T10:20:46;35.35;;;6.35;;
36445;SDS011;22472;50.848;-1.216;2024-02-04T10:23:14;43.47;;;5.82;;
36445;SDS011;22472;50.848;-1.216;2024-02-04T10:25:41;34.42;;;5.78;;
36445;SDS011;22472;50.848;-1.216;2024-02-04T10:28:09;40.03;;;6.07;;
36445;SDS011;22472;50.848;-1.216;2024-02-04T10:30:37;35.50;;;6.18;;
36445;SDS011;22472;50.848;-1.216;2024-02-04T10:33:05;33.47;;;5.40;;
36445;SDS011;22472;50.848;-1.216;2024-02-04T10:35:32;31.70;;;5.22;;
36445;SDS011;22472;50.848;-1.216;2024-02-04T10:37:59;38.47;;;5.47;;
36445;SDS011;22472;50.848;-1.216;2024-02-04T10:40:26;31.88;;;5.40;;
36445;SDS011;22472;50.848;-1.216;2024-02-04T10:42:54;43.67;;;5.97;;
36445;SDS011;22472;50.848;-1.216;2024-02-04T10:45:26;43.65;;;6.80;;
36445;SDS011;22472;50.848;-1.216;2024-02-04T10:47:57;37.92;;;5.82;;
36445;SDS011;22472;50.848;-1.216;2024-02-04T10:50:27;34.03;;;5.47;;
36445;SDS011;22472;50.848;-1.216;2024-02-04T10:52:55;43.38;;;5.75;;
36445;SDS011;22472;50.848;-1.216;2024-02-04T10:55:26;43.37;;;6.63;;
36445;SDS011;22472;50.848;-1.216;2024-02-04T10:57:54;37.72;;;6.43;;
36445;SDS011;22472;50.848;-1.216;2024-02-04T11:00:21;36.72;;;6.63;;
36445;SDS011;22472;50.848;-1.216;2024-02-04T11:02:50;35.00;;;6.15;;
36445;SDS011;22472;50.848;-1.216;2024-02-04T11:05:19;40.55;;;6.07;;
36445;SDS011;22472;50.848;-1.216;2024-02-04T11:07:46;47.90;;;7.00;;
36445;SDS011;22472;50.848;-1.216;2024-02-04T11:10:14;35.95;;;6.38;;
36445;SDS011;22472;50.848;-1.216;2024-02-04T11:12:42;33.05;;;5.53;;
36445;SDS011;22472;50.848;-1.216;2024-02-04T11:15:10;40.83;;;6.18;;
36445;SDS011;22472;50.848;-1.216;2024-02-04T11:17:42;37.22;;;6.43;;
36445;SDS011;22472;50.848;-1.216;2024-02-04T11:20:19;33.97;;;5.57;;
36445;SDS011;22472;50.848;-1.216;2024-02-04T11:22:51;38.00;;;6.22;;
36445;SDS011;22472;50.848;-1.216;2024-02-04T11:25:31;41.35;;;6.10;;
36445;SDS011;22472;50.848;-1.216;2024-02-04T11:28:04;32.22;;;5.63;;
36445;SDS011;22472;50.848;-1.216;2024-02-04T11:30:32;30.48;;;4.82;;
36445;SDS011;22472;50.848;-1.216;2024-02-04T11:33:01;35.00;;;5.22;;
36445;SDS011;22472;50.848;-1.216;2024-02-04T11:35:29;35.97;;;5.28;;
36445;SDS011;22472;50.848;-1.216;2024-02-04T11:37:59;33.53;;;5.82;;
36445;SDS011;22472;50.848;-1.216;2024-02-04T11:40:30;28.77;;;4.95;;
36445;SDS011;22472;50.848;-1.216;2024-02-04T11:43:04;36.25;;;5.18;;
36445;SDS011;22472;50.848;-1.216;2024-02-04T11:45:32;29.35;;;5.68;;
36445;SDS011;22472;50.848;-1.216;2024-02-04T11:48:02;34.25;;;5.45;;
36445;SDS011;22472;50.848;-1.216;2024-02-04T11:50:31;32.67;;;5.05;;
36445;SDS011;22472;50.848;-1.216;2024-02-04T11:53:02;34.45;;;5.60;;
36445;SDS011;22472;50.848;-1.216;2024-02-04T11:55:29;30.60;;;5.25;;
36445;SDS011;22472;50.848;-1.216;2024-02-04T11:57:57;27.95;;;5.35;;
36445;SDS011;22472;50.848;-1.216;2024-02-04T12:00:25;35.75;;;6.03;;
36445;SDS011;22472;50.848;-1.216;2024-02-04T12:02:59;30.13;;;5.93;;
36445;SDS011;22472;50.848;-1.216;2024-02-04T12:05:27;31.10;;;5.25;;
36445;SDS011;22472;50.848;-1.216;2024-02-04T12:07:56;33.75;;;5.68;;
36445;SDS011;22472;50.848;-1.216;2024-02-04T12:10:23;30.92;;;5.60;;
36445;SDS011;22472;50.848;-1.216;2024-02-04T12:12:51;31.55;;;5.43;;
36445;SDS011;22472;50.848;-1.216;2024-02-04T12:15:18;32.78;;;4.85;;
36445;SDS011;22472;50.848;-1.216;2024-02-04T12:17:45;29.05;;;5.20;;
36445;SDS011;22472;50.848;-1.216;2024-02-04T12:20:13;30.63;;;5.32;;
36445;SDS011;22472;50.848;-1.216;2024-02-04T12:22:40;34.05;;;5.07;;
36445;SDS011;22472;50.848;-1.216;2024-02-04T12:25:09;34.63;;;5.35;;
36445;SDS011;22472;50.848;-1.216;2024-02-04T12:27:38;29.27;;;4.97;;
36445;SDS011;22472;50.848;-1.216;2024-02-04T12:30:06;32.38;;;5.63;;
36445;SDS011;22472;50.848;-1.216;2024-02-04T12:32:33;31.88;;;5.47;;
36445;SDS011;22472;50.848;-1.216;2024-02-04T12:35:02;33.05;;;5.43;;
36445;SDS011;22472;50.848;-1.216;2024-02-04T12:37:29;39.47;;;5.70;;
36445;SDS011;22472;50.848;-1.216;2024-02-04T12:39:59;30.50;;;5.20;;
36445;SDS011;22472;50.848;-1.216;2024-02-04T12:42:29;35.58;;;5.50;;
36445;SDS011;22472;50.848;-1.216;2024-02-04T12:44:57;36.83;;;5.32;;
36445;SDS011;22472;50.848;-1.216;2024-02-04T12:47:24;30.85;;;5.10;;
36445;SDS011;22472;50.848;-1.216;2024-02-04T12:49:57;31.23;;;5.75;;
36445;SDS011;22472;50.848;-1.216;2024-02-04T12:52:25;36.58;;;5.72;;
36445;SDS011;22472;50.848;-1.216;2024-02-04T12:54:52;35.38;;;5.80;;
36445;SDS011;22472;50.848;-1.216;2024-02-04T12:57:23;30.80;;;5.55;;
36445;SDS011;22472;50.848;-1.216;2024-02-04T12:59:52;32.45;;;6.28;;
36445;SDS011;22472;50.848;-1.216;2024-02-04T13:02:19;29.75;;;5.57;;
36445;SDS011;22472;50.848;-1.216;2024-02-04T13:04:47;35.30;;;5.88;;
36445;SDS011;22472;50.848;-1.216;2024-02-04T13:07:14;31.90;;;5.72;;
36445;SDS011;22472;50.848;-1.216;2024-02-04T13:09:42;41.65;;;6.63;;
36445;SDS011;22472;50.848;-1.216;2024-02-04T13:12:10;35.53;;;6.18;;
36445;SDS011;22472;50.848;-1.216;2024-02-04T13:14:37;32.88;;;6.55;;
36445;SDS011;22472;50.848;-1.216;2024-02-04T13:17:06;37.00;;;6.57;;
36445;SDS011;22472;50.848;-1.216;2024-02-04T13:19:33;34.80;;;6.10;;
36445;SDS011;22472;50.848;-1.216;2024-02-04T13:22:01;31.63;;;5.40;;
36445;SDS011;22472;50.848;-1.216;2024-02-04T13:24:28;33.50;;;6.25;;
36445;SDS011;22472;50.848;-1.216;2024-02-04T13:26:55;40.67;;;6.47;;
36445;SDS011;22472;50.848;-1.216;2024-02-04T13:29:23;39.50;;;6.38;;
36445;SDS011;22472;50.848;-1.216;2024-02-04T13:31:51;42.42;;;6.50;;
36445;SDS011;22472;50.848;-1.216;2024-02-04T13:34:19;35.05;;;6.47;;
36445;SDS011;22472;50.848;-1.216;2024-02-04T13:36:46;34.25;;;6.72;;
36445;SDS011;22472;50.848;-1.216;2024-02-04T13:39:14;34.45;;;6.85;;
36445;SDS011;22472;50.848;-1.216;2024-02-04T13:41:43;38.85;;;6.78;;
36445;SDS011;22472;50.848;-1.216;2024-02-04T13:44:11;38.42;;;7.07;;
36445;SDS011;22472;50.848;-1.216;2024-02-04T13:46:38;34.38;;;6.50;;
36445;SDS011;22472;50.848;-1.216;2024-02-04T13:49:07;38.33;;;7.40;;
36445;SDS011;22472;50.848;-1.216;2024-02-04T13:51:36;32.78;;;6.28;;
36445;SDS011;22472;50.848;-1.216;2024-02-04T13:54:03;37.50;;;6.55;;
36445;SDS011;22472;50.848;-1.216;2024-02-04T13:56:30;33.70;;;6.55;;
36445;SDS011;22472;50.848;-1.216;2024-02-04T13:58:58;39.13;;;6.22;;
36445;SDS011;22472;50.848;-1.216;2024-02-04T14:01:26;35.13;;;6.07;;
36445;SDS011;22472;50.848;-1.216;2024-02-04T14:03:53;43.05;;;6.63;;
36445;SDS011;22472;50.848;-1.216;2024-02-04T14:06:20;40.40;;;6.90;;
36445;SDS011;22472;50.848;-1.216;2024-02-04T14:08:50;41.50;;;7.22;;
36445;SDS011;22472;50.848;-1.216;2024-02-04T14:11:17;37.05;;;6.43;;
36445;SDS011;22472;50.848;-1.216;2024-02-04T14:13:44;36.13;;;7.20;;
36445;SDS011;22472;50.848;-1.216;2024-02-04T14:16:11;43.00;;;7.22;;
36445;SDS011;22472;50.848;-1.216;2024-02-04T14:18:39;35.55;;;6.40;;
36445;SDS011;22472;50.848;-1.216;2024-02-04T14:21:11;38.75;;;7.43;;
36445;SDS011;22472;50.848;-1.216;2024-02-04T14:23:39;39.65;;;7.30;;
36445;SDS011;22472;50.848;-1.216;2024-02-04T14:26:08;49.78;;;7.40;;
36445;SDS011;22472;50.848;-1.216;2024-02-04T14:28:35;39.17;;;7.18;;
36445;SDS011;22472;50.848;-1.216;2024-02-04T14:31:06;41.08;;;7.50;;